Time;durP1;ratioP1;P1;durP2;ratioP2;P2;SDS_P1;SDS_P2;PMS_P1;PMS_P2;Temp;Humidity;BMP_temperature;BMP_pressure;BME280_temperature;BME280_humidity;BME280_pressure;Samples;Min_cycle;Max_cycle;Signal;HPM_P1;HPM_P2
2019/07/06 00:00:21;;;;;;;4.15;3.55;;;;;;;18.55;52.91699;95138.01;;;;
2019/07/06 00:01:23;;;;;;;4.15;3.55;;;;;;;18.55;52.91699;95138.01;;;;
2019/07/06 00:02:24;;;;;;;3.6;3.3;;;;;;;18.28;53.29004;95137.69;;;;
2019/07/06 00:03:25;;;;;;;3.6;3.3;;;;;;;18.28;53.29004;95137.69;;;;
2019/07/06 00:04:26;;;;;;;3.6;3.3;;;;;;;18.28;53.29004;95137.69;;;;
2019/07/06 00:05:27;;;;;;;3.6;3.3;;;;;;;18.28;53.29004;95137.69;;;;
2019/07/06 00:06:28;;;;;;;3.6;3.3;;;;;;;18.28;53.29004;95137.69;;;;
2019/07/06 00:07:29;;;;;;;3.6;3.3;;;;;;;18.28;53.29004;95137.69;;;;
2019/07/06 00:08:30;;;;;;;3.6;3.3;;;;;;;18.28;53.29004;95137.69;;;;
2019/07/06 00:09:31;;;;;;;3.6;3.3;;;;;;;18.28;53.29004;95137.69;;;;
2019/07/06 00:10:32;;;;;;;3.6;3.3;;;;;;;18.28;53.29004;95137.69;;;;
2019/07/06 00:11:33;;;;;;;3.6;3.3;;;;;;;18.28;53.29004;95137.69;;;;
2019/07/06 00:12:34;;;;;;;5.750001;3.55;;;;;;;18.16;53.66895;95135.89;;;;
2019/07/06 00:13:36;;;;;;;5.750001;3.55;;;;;;;18.16;53.66895;95135.89;;;;
2019/07/06 00:14:37;;;;;;;5.750001;3.55;;;;;;;18.16;53.66895;95135.89;;;;
2019/07/06 00:15:38;;;;;;;5.750001;3.55;;;;;;;18.16;53.66895;95135.89;;;;
2019/07/06 00:16:39;;;;;;;5.750001;3.55;;;;;;;18.16;53.66895;95135.89;;;;
2019/07/06 00:17:40;;;;;;;5.750001;3.55;;;;;;;18.16;53.66895;95135.89;;;;
2019/07/06 00:18:41;;;;;;;5.750001;3.55;;;;;;;18.16;53.66895;95135.89;;;;
2019/07/06 00:19:42;;;;;;;5.750001;3.55;;;;;;;18.16;53.66895;95135.89;;;;
2019/07/06 00:20:43;;;;;;;5.750001;3.55;;;;;;;18.16;53.66895;95135.89;;;;
2019/07/06 00:21:44;;;;;;;5.750001;3.55;;;;;;;18.16;53.66895;95135.89;;;;
2019/07/06 00:22:48;;;;;;;5;3.4;;;;;;;18.06;54.09766;95127.22;;;;
2019/07/06 00:23:50;;;;;;;5;3.4;;;;;;;18.06;54.09766;95127.22;;;;
2019/07/06 00:24:51;;;;;;;5;3.4;;;;;;;18.06;54.09766;95127.22;;;;
2019/07/06 00:25:52;;;;;;;5;3.4;;;;;;;18.06;54.09766;95127.22;;;;
2019/07/06 00:26:53;;;;;;;5;3.4;;;;;;;18.06;54.09766;95127.22;;;;
2019/07/06 00:27:54;;;;;;;5;3.4;;;;;;;18.06;54.09766;95127.22;;;;
2019/07/06 00:28:55;;;;;;;5;3.4;;;;;;;18.06;54.09766;95127.22;;;;
2019/07/06 00:29:56;;;;;;;5;3.4;;;;;;;18.06;54.09766;95127.22;;;;
2019/07/06 00:30:57;;;;;;;5;3.4;;;;;;;18.06;54.09766;95127.22;;;;
2019/07/06 00:31:58;;;;;;;5;3.4;;;;;;;18.06;54.09766;95127.22;;;;
2019/07/06 00:33:00;;;;;;;5;3.4;;;;;;;18.06;54.09766;95127.22;;;;
2019/07/06 00:34:01;;;;;;;4.300001;3.3;;;;;;;18.01;54.53906;95133.28;;;;
2019/07/06 00:35:02;;;;;;;4.300001;3.3;;;;;;;18.01;54.53906;95133.28;;;;
2019/07/06 00:36:04;;;;;;;4.300001;3.3;;;;;;;18.01;54.53906;95133.28;;;;
2019/07/06 00:37:05;;;;;;;4.300001;3.3;;;;;;;18.01;54.53906;95133.28;;;;
2019/07/06 00:38:06;;;;;;;4.300001;3.3;;;;;;;18.01;54.53906;95133.28;;;;
2019/07/06 00:39:07;;;;;;;4.300001;3.3;;;;;;;18.01;54.53906;95133.28;;;;
2019/07/06 00:40:08;;;;;;;4.300001;3.3;;;;;;;18.01;54.53906;95133.28;;;;
2019/07/06 00:41:11;;;;;;;4.300001;3.3;;;;;;;18.01;54.53906;95133.28;;;;
2019/07/06 00:42:12;;;;;;;4.300001;3.3;;;;;;;18.01;54.53906;95133.28;;;;
2019/07/06 00:43:13;;;;;;;4.300001;3.3;;;;;;;18.01;54.53906;95133.28;;;;
2019/07/06 00:44:14;;;;;;;3.7;3.3;;;;;;;17.7;55.25586;95126.28;;;;
2019/07/06 00:45:15;;;;;;;3.7;3.3;;;;;;;17.7;55.25586;95126.28;;;;
2019/07/06 00:46:17;;;;;;;3.7;3.3;;;;;;;17.7;55.25586;95126.28;;;;
2019/07/06 00:47:18;;;;;;;3.7;3.3;;;;;;;17.7;55.25586;95126.28;;;;
2019/07/06 00:48:20;;;;;;;3.7;3.3;;;;;;;17.7;55.25586;95126.28;;;;
2019/07/06 00:49:21;;;;;;;3.7;3.3;;;;;;;17.7;55.25586;95126.28;;;;
2019/07/06 00:50:22;;;;;;;3.7;3.3;;;;;;;17.7;55.25586;95126.28;;;;
2019/07/06 00:51:24;;;;;;;3.7;3.3;;;;;;;17.7;55.25586;95126.28;;;;
2019/07/06 00:52:25;;;;;;;3.7;3.3;;;;;;;17.7;55.25586;95126.28;;;;
2019/07/06 00:53:26;;;;;;;3.7;3.3;;;;;;;17.7;55.25586;95126.28;;;;
2019/07/06 00:54:27;;;;;;;4.65;3.65;;;;;;;17.44;55.63867;95112.63;;;;
2019/07/06 00:55:28;;;;;;;4.65;3.65;;;;;;;17.44;55.63867;95112.63;;;;
2019/07/06 00:56:29;;;;;;;4.65;3.65;;;;;;;17.44;55.63867;95112.63;;;;
2019/07/06 00:57:31;;;;;;;4.65;3.65;;;;;;;17.44;55.63867;95112.63;;;;
2019/07/06 00:58:32;;;;;;;4.65;3.65;;;;;;;17.44;55.63867;95112.63;;;;
2019/07/06 00:59:33;;;;;;;4.65;3.65;;;;;;;17.44;55.63867;95112.63;;;;
2019/07/06 01:00:38;;;;;;;4.65;3.65;;;;;;;17.44;55.63867;95112.63;;;;
2019/07/06 01:01:40;;;;;;;4.65;3.65;;;;;;;17.44;55.63867;95112.63;;;;
2019/07/06 01:02:54;;;;;;;4.65;3.65;;;;;;;17.44;55.63867;95112.63;;;;
2019/07/06 01:04:00;;;;;;;4.65;3.65;;;;;;;17.44;55.63867;95112.63;;;;
2019/07/06 01:05:02;;;;;;;5.1;4.05;;;;;;;17.03;56.44043;95093.78;;;;
2019/07/06 01:06:04;;;;;;;5.1;4.05;;;;;;;17.03;56.44043;95093.78;;;;
2019/07/06 01:07:05;;;;;;;5.1;4.05;;;;;;;17.03;56.44043;95093.78;;;;
2019/07/06 01:08:06;;;;;;;5.1;4.05;;;;;;;17.03;56.44043;95093.78;;;;
2019/07/06 01:09:07;;;;;;;5.1;4.05;;;;;;;17.03;56.44043;95093.78;;;;
2019/07/06 01:10:08;;;;;;;5.1;4.05;;;;;;;17.03;56.44043;95093.78;;;;
2019/07/06 01:11:12;;;;;;;5.1;4.05;;;;;;;17.03;56.44043;95093.78;;;;
2019/07/06 01:12:13;;;;;;;5.1;4.05;;;;;;;17.03;56.44043;95093.78;;;;
2019/07/06 01:13:14;;;;;;;5.1;4.05;;;;;;;17.03;56.44043;95093.78;;;;
2019/07/06 01:14:15;;;;;;;5.1;4.05;;;;;;;17.03;56.44043;95093.78;;;;
2019/07/06 01:15:16;;;;;;;5.1;4.05;;;;;;;17.03;56.44043;95093.78;;;;
2019/07/06 01:16:18;;;;;;;3.9;3.6;;;;;;;16.71;57.17285;95098.42;;;;
2019/07/06 01:17:19;;;;;;;3.9;3.6;;;;;;;16.71;57.17285;95098.42;;;;
2019/07/06 01:18:20;;;;;;;3.9;3.6;;;;;;;16.71;57.17285;95098.42;;;;
2019/07/06 01:19:21;;;;;;;3.9;3.6;;;;;;;16.71;57.17285;95098.42;;;;
2019/07/06 01:20:23;;;;;;;3.9;3.6;;;;;;;16.71;57.17285;95098.42;;;;
2019/07/06 01:21:24;;;;;;;3.9;3.6;;;;;;;16.71;57.17285;95098.42;;;;
2019/07/06 01:22:25;;;;;;;3.9;3.6;;;;;;;16.71;57.17285;95098.42;;;;
2019/07/06 01:23:26;;;;;;;3.9;3.6;;;;;;;16.71;57.17285;95098.42;;;;
2019/07/06 01:24:27;;;;;;;3.9;3.6;;;;;;;16.71;57.17285;95098.42;;;;
2019/07/06 01:25:28;;;;;;;3.9;3.6;;;;;;;16.71;57.17285;95098.42;;;;
2019/07/06 01:26:30;;;;;;;4.149999;3.75;;;;;;;16.37;57.75;95081.44;;;;
2019/07/06 01:27:31;;;;;;;4.149999;3.75;;;;;;;16.37;57.75;95081.44;;;;
2019/07/06 01:28:32;;;;;;;4.149999;3.75;;;;;;;16.37;57.75;95081.44;;;;
2019/07/06 01:29:33;;;;;;;4.149999;3.75;;;;;;;16.37;57.75;95081.44;;;;
2019/07/06 01:30:34;;;;;;;4.149999;3.75;;;;;;;16.37;57.75;95081.44;;;;
2019/07/06 01:31:35;;;;;;;4.149999;3.75;;;;;;;16.37;57.75;95081.44;;;;
2019/07/06 01:32:44;;;;;;;4.149999;3.75;;;;;;;16.37;57.75;95081.44;;;;
2019/07/06 01:33:45;;;;;;;4.149999;3.75;;;;;;;16.37;57.75;95081.44;;;;
2019/07/06 01:34:47;;;;;;;4.149999;3.75;;;;;;;16.37;57.75;95081.44;;;;
2019/07/06 01:35:48;;;;;;;4.149999;3.75;;;;;;;16.37;57.75;95081.44;;;;
2019/07/06 01:36:49;;;;;;;4.149999;3.75;;;;;;;16.37;57.75;95081.44;;;;
2019/07/06 01:37:50;;;;;;;4.25;3.95;;;;;;;16.16;58.38672;95069.37;;;;
2019/07/06 01:38:51;;;;;;;4.25;3.95;;;;;;;16.16;58.38672;95069.37;;;;
2019/07/06 01:39:52;;;;;;;4.25;3.95;;;;;;;16.16;58.38672;95069.37;;;;
2019/07/06 01:40:54;;;;;;;4.25;3.95;;;;;;;16.16;58.38672;95069.37;;;;
2019/07/06 01:41:55;;;;;;;4.25;3.95;;;;;;;16.16;58.38672;95069.37;;;;
2019/07/06 01:42:56;;;;;;;4.25;3.95;;;;;;;16.16;58.38672;95069.37;;;;
2019/07/06 01:43:57;;;;;;;4.25;3.95;;;;;;;16.16;58.38672;95069.37;;;;
2019/07/06 01:44:58;;;;;;;4.25;3.95;;;;;;;16.16;58.38672;95069.37;;;;
2019/07/06 01:45:59;;;;;;;4.25;3.95;;;;;;;16.16;58.38672;95069.37;;;;
2019/07/06 01:47:00;;;;;;;4.25;3.95;;;;;;;16.16;58.38672;95069.37;;;;
2019/07/06 01:48:02;;;;;;;4.5;4.1;;;;;;;15.9;59.04883;95058.26;;;;
2019/07/06 01:49:03;;;;;;;4.5;4.1;;;;;;;15.9;59.04883;95058.26;;;;
2019/07/06 01:50:04;;;;;;;4.5;4.1;;;;;;;15.9;59.04883;95058.26;;;;
2019/07/06 01:51:05;;;;;;;4.5;4.1;;;;;;;15.9;59.04883;95058.26;;;;
2019/07/06 01:52:07;;;;;;;4.5;4.1;;;;;;;15.9;59.04883;95058.26;;;;
2019/07/06 01:53:08;;;;;;;4.5;4.1;;;;;;;15.9;59.04883;95058.26;;;;
2019/07/06 01:54:09;;;;;;;4.5;4.1;;;;;;;15.9;59.04883;95058.26;;;;
2019/07/06 01:55:10;;;;;;;4.5;4.1;;;;;;;15.9;59.04883;95058.26;;;;
2019/07/06 01:56:13;;;;;;;4.5;4.1;;;;;;;15.9;59.04883;95058.26;;;;
2019/07/06 01:57:14;;;;;;;4.5;4.1;;;;;;;15.9;59.04883;95058.26;;;;
2019/07/06 01:58:15;;;;;;;5.299999;4.699999;;;;;;;15.71;59.96973;95043.15;;;;
2019/07/06 01:59:16;;;;;;;5.299999;4.699999;;;;;;;15.71;59.96973;95043.15;;;;
2019/07/06 02:00:17;;;;;;;5.299999;4.699999;;;;;;;15.71;59.96973;95043.15;;;;
2019/07/06 02:01:19;;;;;;;5.299999;4.699999;;;;;;;15.71;59.96973;95043.15;;;;
2019/07/06 02:02:20;;;;;;;5.299999;4.699999;;;;;;;15.71;59.96973;95043.15;;;;
2019/07/06 02:03:22;;;;;;;5.299999;4.699999;;;;;;;15.71;59.96973;95043.15;;;;
2019/07/06 02:04:23;;;;;;;5.299999;4.699999;;;;;;;15.71;59.96973;95043.15;;;;
2019/07/06 02:05:24;;;;;;;5.299999;4.699999;;;;;;;15.71;59.96973;95043.15;;;;
2019/07/06 02:06:25;;;;;;;5.299999;4.699999;;;;;;;15.71;59.96973;95043.15;;;;
2019/07/06 02:07:26;;;;;;;5.299999;4.699999;;;;;;;15.71;59.96973;95043.15;;;;
2019/07/06 02:08:27;;;;;;;5.299999;4.699999;;;;;;;15.71;59.96973;95043.15;;;;
2019/07/06 02:09:28;;;;;;;5.85;5.25;;;;;;;15.46;60.68457;95035.41;;;;
2019/07/06 02:10:29;;;;;;;5.85;5.25;;;;;;;15.46;60.68457;95035.41;;;;
2019/07/06 02:11:31;;;;;;;5.85;5.25;;;;;;;15.46;60.68457;95035.41;;;;
2019/07/06 02:12:33;;;;;;;5.85;5.25;;;;;;;15.46;60.68457;95035.41;;;;
2019/07/06 02:13:34;;;;;;;5.85;5.25;;;;;;;15.46;60.68457;95035.41;;;;
2019/07/06 02:14:35;;;;;;;5.85;5.25;;;;;;;15.46;60.68457;95035.41;;;;
2019/07/06 02:15:36;;;;;;;5.85;5.25;;;;;;;15.46;60.68457;95035.41;;;;
2019/07/06 02:16:37;;;;;;;5.85;5.25;;;;;;;15.46;60.68457;95035.41;;;;
2019/07/06 02:17:38;;;;;;;5.85;5.25;;;;;;;15.46;60.68457;95035.41;;;;
2019/07/06 02:18:39;;;;;;;5.85;5.25;;;;;;;15.46;60.68457;95035.41;;;;
2019/07/06 02:19:41;;;;;;;5.7;5.100001;;;;;;;15.3;61.54297;95039.17;;;;
2019/07/06 02:20:42;;;;;;;5.7;5.100001;;;;;;;15.3;61.54297;95039.17;;;;
2019/07/06 02:21:43;;;;;;;5.7;5.100001;;;;;;;15.3;61.54297;95039.17;;;;
2019/07/06 02:22:44;;;;;;;5.7;5.100001;;;;;;;15.3;61.54297;95039.17;;;;
2019/07/06 02:23:45;;;;;;;5.7;5.100001;;;;;;;15.3;61.54297;95039.17;;;;
2019/07/06 02:24:46;;;;;;;5.7;5.100001;;;;;;;15.3;61.54297;95039.17;;;;
2019/07/06 02:25:48;;;;;;;5.7;5.100001;;;;;;;15.3;61.54297;95039.17;;;;
2019/07/06 02:26:49;;;;;;;5.7;5.100001;;;;;;;15.3;61.54297;95039.17;;;;
2019/07/06 02:27:50;;;;;;;5.7;5.100001;;;;;;;15.3;61.54297;95039.17;;;;
2019/07/06 02:28:51;;;;;;;5.7;5.100001;;;;;;;15.3;61.54297;95039.17;;;;
2019/07/06 02:29:52;;;;;;;5.7;5.100001;;;;;;;15.3;61.54297;95039.17;;;;
2019/07/06 02:30:53;;;;;;;6.85;6.199999;;;;;;;15.12;62.25586;95030.17;;;;
2019/07/06 02:31:54;;;;;;;6.85;6.199999;;;;;;;15.12;62.25586;95030.17;;;;
2019/07/06 02:32:55;;;;;;;6.85;6.199999;;;;;;;15.12;62.25586;95030.17;;;;
2019/07/06 02:33:56;;;;;;;6.85;6.199999;;;;;;;15.12;62.25586;95030.17;;;;
2019/07/06 02:34:58;;;;;;;6.85;6.199999;;;;;;;15.12;62.25586;95030.17;;;;
2019/07/06 02:35:59;;;;;;;6.85;6.199999;;;;;;;15.12;62.25586;95030.17;;;;
2019/07/06 02:37:00;;;;;;;6.85;6.199999;;;;;;;15.12;62.25586;95030.17;;;;
2019/07/06 02:38:01;;;;;;;6.85;6.199999;;;;;;;15.12;62.25586;95030.17;;;;
2019/07/06 02:39:03;;;;;;;6.85;6.199999;;;;;;;15.12;62.25586;95030.17;;;;
2019/07/06 02:40:06;;;;;;;6.85;6.199999;;;;;;;15.12;62.25586;95030.17;;;;
2019/07/06 02:41:08;;;;;;;7.6;6.799999;;;;;;;15.04;63.17773;95016.16;;;;
2019/07/06 02:42:09;;;;;;;7.6;6.799999;;;;;;;15.04;63.17773;95016.16;;;;
2019/07/06 02:43:10;;;;;;;7.6;6.799999;;;;;;;15.04;63.17773;95016.16;;;;
2019/07/06 02:44:12;;;;;;;7.6;6.799999;;;;;;;15.04;63.17773;95016.16;;;;
2019/07/06 02:45:13;;;;;;;7.6;6.799999;;;;;;;15.04;63.17773;95016.16;;;;
2019/07/06 02:46:15;;;;;;;7.6;6.799999;;;;;;;15.04;63.17773;95016.16;;;;
2019/07/06 02:47:16;;;;;;;7.6;6.799999;;;;;;;15.04;63.17773;95016.16;;;;
2019/07/06 02:48:17;;;;;;;7.6;6.799999;;;;;;;15.04;63.17773;95016.16;;;;
2019/07/06 02:49:18;;;;;;;7.6;6.799999;;;;;;;15.04;63.17773;95016.16;;;;
2019/07/06 02:50:19;;;;;;;7.6;6.799999;;;;;;;15.04;63.17773;95016.16;;;;
2019/07/06 02:51:24;;;;;;;9.249998;6.649999;;;;;;;14.93;64.07422;95018.05;;;;
2019/07/06 02:52:25;;;;;;;9.249998;6.649999;;;;;;;14.93;64.07422;95018.05;;;;
2019/07/06 02:53:26;;;;;;;9.249998;6.649999;;;;;;;14.93;64.07422;95018.05;;;;
2019/07/06 02:54:27;;;;;;;9.249998;6.649999;;;;;;;14.93;64.07422;95018.05;;;;
2019/07/06 02:55:28;;;;;;;9.249998;6.649999;;;;;;;14.93;64.07422;95018.05;;;;
2019/07/06 02:56:29;;;;;;;9.249998;6.649999;;;;;;;14.93;64.07422;95018.05;;;;
2019/07/06 02:57:30;;;;;;;9.249998;6.649999;;;;;;;14.93;64.07422;95018.05;;;;
2019/07/06 02:58:32;;;;;;;9.249998;6.649999;;;;;;;14.93;64.07422;95018.05;;;;
2019/07/06 02:59:33;;;;;;;9.249998;6.649999;;;;;;;14.93;64.07422;95018.05;;;;
2019/07/06 03:00:34;;;;;;;9.249998;6.649999;;;;;;;14.93;64.07422;95018.05;;;;
2019/07/06 03:01:35;;;;;;;9.249998;6.649999;;;;;;;14.93;64.07422;95018.05;;;;
2019/07/06 03:02:36;;;;;;;7.7;6.75;;;;;;;14.92;64.71191;95008.26;;;;
2019/07/06 03:03:37;;;;;;;7.7;6.75;;;;;;;14.92;64.71191;95008.26;;;;
2019/07/06 03:04:38;;;;;;;7.7;6.75;;;;;;;14.92;64.71191;95008.26;;;;
2019/07/06 03:05:39;;;;;;;7.7;6.75;;;;;;;14.92;64.71191;95008.26;;;;
2019/07/06 03:06:40;;;;;;;7.7;6.75;;;;;;;14.92;64.71191;95008.26;;;;
2019/07/06 03:07:42;;;;;;;7.7;6.75;;;;;;;14.92;64.71191;95008.26;;;;
2019/07/06 03:08:43;;;;;;;7.7;6.75;;;;;;;14.92;64.71191;95008.26;;;;
2019/07/06 03:09:44;;;;;;;7.7;6.75;;;;;;;14.92;64.71191;95008.26;;;;
2019/07/06 03:10:45;;;;;;;7.7;6.75;;;;;;;14.92;64.71191;95008.26;;;;
2019/07/06 03:11:46;;;;;;;7.7;6.75;;;;;;;14.92;64.71191;95008.26;;;;
2019/07/06 03:12:47;;;;;;;6.900001;6.4;;;;;;;14.83;65.3916;95000.9;;;;
2019/07/06 03:13:48;;;;;;;6.900001;6.4;;;;;;;14.83;65.3916;95000.9;;;;
2019/07/06 03:14:49;;;;;;;6.900001;6.4;;;;;;;14.83;65.3916;95000.9;;;;
2019/07/06 03:15:50;;;;;;;6.900001;6.4;;;;;;;14.83;65.3916;95000.9;;;;
2019/07/06 03:16:51;;;;;;;6.900001;6.4;;;;;;;14.83;65.3916;95000.9;;;;
2019/07/06 03:17:53;;;;;;;6.900001;6.4;;;;;;;14.83;65.3916;95000.9;;;;
2019/07/06 03:18:54;;;;;;;6.900001;6.4;;;;;;;14.83;65.3916;95000.9;;;;
2019/07/06 03:19:55;;;;;;;6.900001;6.4;;;;;;;14.83;65.3916;95000.9;;;;
2019/07/06 03:20:56;;;;;;;6.900001;6.4;;;;;;;14.83;65.3916;95000.9;;;;
2019/07/06 03:21:57;;;;;;;6.900001;6.4;;;;;;;14.83;65.3916;95000.9;;;;
2019/07/06 03:22:58;;;;;;;7.05;6.2;;;;;;;14.83;65.85742;94997.65;;;;
2019/07/06 03:23:59;;;;;;;7.05;6.2;;;;;;;14.83;65.85742;94997.65;;;;
2019/07/06 03:25:00;;;;;;;7.05;6.2;;;;;;;14.83;65.85742;94997.65;;;;
2019/07/06 03:26:03;;;;;;;7.05;6.2;;;;;;;14.83;65.85742;94997.65;;;;
2019/07/06 03:27:04;;;;;;;7.05;6.2;;;;;;;14.83;65.85742;94997.65;;;;
2019/07/06 03:28:05;;;;;;;7.05;6.2;;;;;;;14.83;65.85742;94997.65;;;;
2019/07/06 03:29:06;;;;;;;7.05;6.2;;;;;;;14.83;65.85742;94997.65;;;;
2019/07/06 03:30:07;;;;;;;7.05;6.2;;;;;;;14.83;65.85742;94997.65;;;;
2019/07/06 03:31:20;;;;;;;7.05;6.2;;;;;;;14.83;65.85742;94997.65;;;;
2019/07/06 03:32:21;;;;;;;7.05;6.2;;;;;;;14.83;65.85742;94997.65;;;;
2019/07/06 03:33:22;;;;;;;7.05;6.2;;;;;;;14.83;65.85742;94997.65;;;;
2019/07/06 03:34:23;;;;;;;6.15;5.6;;;;;;;14.85;66.36914;94987.33;;;;
2019/07/06 03:35:24;;;;;;;6.15;5.6;;;;;;;14.85;66.36914;94987.33;;;;
2019/07/06 03:36:25;;;;;;;6.15;5.6;;;;;;;14.85;66.36914;94987.33;;;;
2019/07/06 03:37:26;;;;;;;6.15;5.6;;;;;;;14.85;66.36914;94987.33;;;;
2019/07/06 03:38:27;;;;;;;6.15;5.6;;;;;;;14.85;66.36914;94987.33;;;;
2019/07/06 03:39:28;;;;;;;6.15;5.6;;;;;;;14.85;66.36914;94987.33;;;;
2019/07/06 03:40:29;;;;;;;6.15;5.6;;;;;;;14.85;66.36914;94987.33;;;;
2019/07/06 03:41:31;;;;;;;6.15;5.6;;;;;;;14.85;66.36914;94987.33;;;;
2019/07/06 03:42:32;;;;;;;6.15;5.6;;;;;;;14.85;66.36914;94987.33;;;;
2019/07/06 03:43:33;;;;;;;6.15;5.6;;;;;;;14.85;66.36914;94987.33;;;;
2019/07/06 03:44:34;;;;;;;6.9;6.249999;;;;;;;15.03;66.18945;94982.85;;;;
2019/07/06 03:45:35;;;;;;;6.9;6.249999;;;;;;;15.03;66.18945;94982.85;;;;
2019/07/06 03:46:36;;;;;;;6.9;6.249999;;;;;;;15.03;66.18945;94982.85;;;;
2019/07/06 03:47:37;;;;;;;6.9;6.249999;;;;;;;15.03;66.18945;94982.85;;;;
2019/07/06 03:48:38;;;;;;;6.9;6.249999;;;;;;;15.03;66.18945;94982.85;;;;
2019/07/06 03:49:39;;;;;;;6.9;6.249999;;;;;;;15.03;66.18945;94982.85;;;;
2019/07/06 03:50:41;;;;;;;6.9;6.249999;;;;;;;15.03;66.18945;94982.85;;;;
2019/07/06 03:51:42;;;;;;;6.9;6.249999;;;;;;;15.03;66.18945;94982.85;;;;
2019/07/06 03:52:43;;;;;;;6.9;6.249999;;;;;;;15.03;66.18945;94982.85;;;;
2019/07/06 03:53:44;;;;;;;6.9;6.249999;;;;;;;15.03;66.18945;94982.85;;;;
2019/07/06 03:54:45;;;;;;;6.9;6.249999;;;;;;;15.03;66.18945;94982.85;;;;
2019/07/06 03:55:46;;;;;;;5.900001;5.450001;;;;;;;15.08;66.14355;94984.09;;;;
2019/07/06 03:56:47;;;;;;;5.900001;5.450001;;;;;;;15.08;66.14355;94984.09;;;;
2019/07/06 03:57:48;;;;;;;5.900001;5.450001;;;;;;;15.08;66.14355;94984.09;;;;
2019/07/06 03:58:49;;;;;;;5.900001;5.450001;;;;;;;15.08;66.14355;94984.09;;;;
2019/07/06 03:59:50;;;;;;;5.900001;5.450001;;;;;;;15.08;66.14355;94984.09;;;;
2019/07/06 04:00:51;;;;;;;5.900001;5.450001;;;;;;;15.08;66.14355;94984.09;;;;
2019/07/06 04:01:53;;;;;;;5.900001;5.450001;;;;;;;15.08;66.14355;94984.09;;;;
2019/07/06 04:02:54;;;;;;;5.900001;5.450001;;;;;;;15.08;66.14355;94984.09;;;;
2019/07/06 04:03:55;;;;;;;5.900001;5.450001;;;;;;;15.08;66.14355;94984.09;;;;
2019/07/06 04:04:56;;;;;;;5.900001;5.450001;;;;;;;15.08;66.14355;94984.09;;;;
2019/07/06 04:05:57;;;;;;;5.95;5.349999;;;;;;;15.23;66.10059;94968.73;;;;
2019/07/06 04:06:58;;;;;;;5.95;5.349999;;;;;;;15.23;66.10059;94968.73;;;;
2019/07/06 04:07:59;;;;;;;5.95;5.349999;;;;;;;15.23;66.10059;94968.73;;;;
2019/07/06 04:09:00;;;;;;;5.95;5.349999;;;;;;;15.23;66.10059;94968.73;;;;
2019/07/06 04:10:02;;;;;;;5.95;5.349999;;;;;;;15.23;66.10059;94968.73;;;;
2019/07/06 04:11:03;;;;;;;5.95;5.349999;;;;;;;15.23;66.10059;94968.73;;;;
2019/07/06 04:12:04;;;;;;;5.95;5.349999;;;;;;;15.23;66.10059;94968.73;;;;
2019/07/06 04:13:06;;;;;;;5.95;5.349999;;;;;;;15.23;66.10059;94968.73;;;;
2019/07/06 04:14:07;;;;;;;5.95;5.349999;;;;;;;15.23;66.10059;94968.73;;;;
2019/07/06 04:15:08;;;;;;;5.95;5.349999;;;;;;;15.23;66.10059;94968.73;;;;
2019/07/06 04:16:10;;;;;;;6.5;5.400001;;;;;;;15.37;66.03516;94961.65;;;;
2019/07/06 04:17:11;;;;;;;6.5;5.400001;;;;;;;15.37;66.03516;94961.65;;;;
2019/07/06 04:18:12;;;;;;;6.5;5.400001;;;;;;;15.37;66.03516;94961.65;;;;
2019/07/06 04:19:13;;;;;;;6.5;5.400001;;;;;;;15.37;66.03516;94961.65;;;;
2019/07/06 04:20:14;;;;;;;6.5;5.400001;;;;;;;15.37;66.03516;94961.65;;;;
2019/07/06 04:21:17;;;;;;;6.5;5.400001;;;;;;;15.37;66.03516;94961.65;;;;
2019/07/06 04:22:18;;;;;;;6.5;5.400001;;;;;;;15.37;66.03516;94961.65;;;;
2019/07/06 04:23:20;;;;;;;6.5;5.400001;;;;;;;15.37;66.03516;94961.65;;;;
2019/07/06 04:24:21;;;;;;;6.5;5.400001;;;;;;;15.37;66.03516;94961.65;;;;
2019/07/06 04:25:22;;;;;;;6.5;5.400001;;;;;;;15.37;66.03516;94961.65;;;;
2019/07/06 04:26:23;;;;;;;6.5;5.400001;;;;;;;15.37;66.03516;94961.65;;;;
2019/07/06 04:27:24;;;;;;;5.749999;5.15;;;;;;;15.58;65.66602;94970.09;;;;
2019/07/06 04:28:25;;;;;;;5.749999;5.15;;;;;;;15.58;65.66602;94970.09;;;;
2019/07/06 04:29:26;;;;;;;5.749999;5.15;;;;;;;15.58;65.66602;94970.09;;;;
2019/07/06 04:30:27;;;;;;;5.749999;5.15;;;;;;;15.58;65.66602;94970.09;;;;
2019/07/06 04:31:43;;;;;;;5.749999;5.15;;;;;;;15.58;65.66602;94970.09;;;;
2019/07/06 04:32:44;;;;;;;5.749999;5.15;;;;;;;15.58;65.66602;94970.09;;;;
2019/07/06 04:33:45;;;;;;;5.749999;5.15;;;;;;;15.58;65.66602;94970.09;;;;
2019/07/06 04:34:46;;;;;;;5.749999;5.15;;;;;;;15.58;65.66602;94970.09;;;;
2019/07/06 04:35:47;;;;;;;5.749999;5.15;;;;;;;15.58;65.66602;94970.09;;;;
2019/07/06 04:36:48;;;;;;;5.749999;5.15;;;;;;;15.58;65.66602;94970.09;;;;
2019/07/06 04:37:49;;;;;;;6.8;4.849999;;;;;;;15.7;65.49902;94967.08;;;;
2019/07/06 04:38:50;;;;;;;6.8;4.849999;;;;;;;15.7;65.49902;94967.08;;;;
2019/07/06 04:39:51;;;;;;;6.8;4.849999;;;;;;;15.7;65.49902;94967.08;;;;
2019/07/06 04:40:52;;;;;;;6.8;4.849999;;;;;;;15.7;65.49902;94967.08;;;;
2019/07/06 04:41:54;;;;;;;6.8;4.849999;;;;;;;15.7;65.49902;94967.08;;;;
2019/07/06 04:42:55;;;;;;;6.8;4.849999;;;;;;;15.7;65.49902;94967.08;;;;
2019/07/06 04:43:56;;;;;;;6.8;4.849999;;;;;;;15.7;65.49902;94967.08;;;;
2019/07/06 04:44:57;;;;;;;6.8;4.849999;;;;;;;15.7;65.49902;94967.08;;;;
2019/07/06 04:45:58;;;;;;;6.8;4.849999;;;;;;;15.7;65.49902;94967.08;;;;
2019/07/06 04:46:59;;;;;;;6.8;4.849999;;;;;;;15.7;65.49902;94967.08;;;;
2019/07/06 04:48:00;;;;;;;5.350001;4.85;;;;;;;15.94;65.25098;94970.4;;;;
2019/07/06 04:49:01;;;;;;;5.350001;4.85;;;;;;;15.94;65.25098;94970.4;;;;
2019/07/06 04:50:02;;;;;;;5.350001;4.85;;;;;;;15.94;65.25098;94970.4;;;;
2019/07/06 04:51:04;;;;;;;5.350001;4.85;;;;;;;15.94;65.25098;94970.4;;;;
2019/07/06 04:52:05;;;;;;;5.350001;4.85;;;;;;;15.94;65.25098;94970.4;;;;
2019/07/06 04:53:06;;;;;;;5.350001;4.85;;;;;;;15.94;65.25098;94970.4;;;;
2019/07/06 04:54:07;;;;;;;5.350001;4.85;;;;;;;15.94;65.25098;94970.4;;;;
2019/07/06 04:55:08;;;;;;;5.350001;4.85;;;;;;;15.94;65.25098;94970.4;;;;
2019/07/06 04:56:10;;;;;;;5.350001;4.85;;;;;;;15.94;65.25098;94970.4;;;;
2019/07/06 04:57:11;;;;;;;5.350001;4.85;;;;;;;15.94;65.25098;94970.4;;;;
2019/07/06 04:58:12;;;;;;;5.350001;4.85;;;;;;;15.94;65.25098;94970.4;;;;
2019/07/06 04:59:13;;;;;;;5.25;4.649999;;;;;;;16.2;64.90918;94970.2;;;;
2019/07/06 05:00:14;;;;;;;5.25;4.649999;;;;;;;16.2;64.90918;94970.2;;;;
2019/07/06 05:01:16;;;;;;;5.25;4.649999;;;;;;;16.2;64.90918;94970.2;;;;
2019/07/06 05:02:17;;;;;;;5.25;4.649999;;;;;;;16.2;64.90918;94970.2;;;;
2019/07/06 05:03:18;;;;;;;5.25;4.649999;;;;;;;16.2;64.90918;94970.2;;;;
2019/07/06 05:04:19;;;;;;;5.25;4.649999;;;;;;;16.2;64.90918;94970.2;;;;
2019/07/06 05:05:20;;;;;;;5.25;4.649999;;;;;;;16.2;64.90918;94970.2;;;;
2019/07/06 05:06:21;;;;;;;5.25;4.649999;;;;;;;16.2;64.90918;94970.2;;;;
2019/07/06 05:07:22;;;;;;;5.25;4.649999;;;;;;;16.2;64.90918;94970.2;;;;
2019/07/06 05:08:23;;;;;;;5.25;4.649999;;;;;;;16.2;64.90918;94970.2;;;;
2019/07/06 05:09:24;;;;;;;5.55;4.95;;;;;;;16.64;64.32031;94965.26;;;;
2019/07/06 05:10:25;;;;;;;5.55;4.95;;;;;;;16.64;64.32031;94965.26;;;;
2019/07/06 05:11:27;;;;;;;5.55;4.95;;;;;;;16.64;64.32031;94965.26;;;;
2019/07/06 05:12:28;;;;;;;5.55;4.95;;;;;;;16.64;64.32031;94965.26;;;;
2019/07/06 05:13:29;;;;;;;5.55;4.95;;;;;;;16.64;64.32031;94965.26;;;;
2019/07/06 05:14:30;;;;;;;5.55;4.95;;;;;;;16.64;64.32031;94965.26;;;;
2019/07/06 05:15:31;;;;;;;5.55;4.95;;;;;;;16.64;64.32031;94965.26;;;;
2019/07/06 05:16:32;;;;;;;5.55;4.95;;;;;;;16.64;64.32031;94965.26;;;;
2019/07/06 05:17:33;;;;;;;5.55;4.95;;;;;;;16.64;64.32031;94965.26;;;;
2019/07/06 05:18:34;;;;;;;5.55;4.95;;;;;;;16.64;64.32031;94965.26;;;;
2019/07/06 05:19:35;;;;;;;5.55;4.95;;;;;;;16.64;64.32031;94965.26;;;;
2019/07/06 05:20:36;;;;;;;6.299999;4.849999;;;;;;;17.1;63.72461;94955.15;;;;
2019/07/06 05:21:38;;;;;;;6.299999;4.849999;;;;;;;17.1;63.72461;94955.15;;;;
2019/07/06 05:22:39;;;;;;;6.299999;4.849999;;;;;;;17.1;63.72461;94955.15;;;;
2019/07/06 05:23:40;;;;;;;6.299999;4.849999;;;;;;;17.1;63.72461;94955.15;;;;
2019/07/06 05:24:41;;;;;;;6.299999;4.849999;;;;;;;17.1;63.72461;94955.15;;;;
2019/07/06 05:25:42;;;;;;;6.299999;4.849999;;;;;;;17.1;63.72461;94955.15;;;;
2019/07/06 05:26:43;;;;;;;6.299999;4.849999;;;;;;;17.1;63.72461;94955.15;;;;
2019/07/06 05:27:44;;;;;;;6.299999;4.849999;;;;;;;17.1;63.72461;94955.15;;;;
2019/07/06 05:28:45;;;;;;;6.299999;4.849999;;;;;;;17.1;63.72461;94955.15;;;;
2019/07/06 05:29:46;;;;;;;6.299999;4.849999;;;;;;;17.1;63.72461;94955.15;;;;
2019/07/06 05:30:47;;;;;;;5.1;4.6;;;;;;;17.75;62.87793;94954.33;;;;
2019/07/06 05:31:48;;;;;;;5.1;4.6;;;;;;;17.75;62.87793;94954.33;;;;
2019/07/06 05:32:50;;;;;;;5.1;4.6;;;;;;;17.75;62.87793;94954.33;;;;
2019/07/06 05:33:51;;;;;;;5.1;4.6;;;;;;;17.75;62.87793;94954.33;;;;
2019/07/06 05:34:52;;;;;;;5.1;4.6;;;;;;;17.75;62.87793;94954.33;;;;
2019/07/06 05:35:53;;;;;;;5.1;4.6;;;;;;;17.75;62.87793;94954.33;;;;
2019/07/06 05:36:54;;;;;;;5.1;4.6;;;;;;;17.75;62.87793;94954.33;;;;
2019/07/06 05:37:55;;;;;;;5.1;4.6;;;;;;;17.75;62.87793;94954.33;;;;
2019/07/06 05:38:56;;;;;;;5.1;4.6;;;;;;;17.75;62.87793;94954.33;;;;